Time;durP1;ratioP1;P1;durP2;ratioP2;P2;SDS_P1;SDS_P2;PMS_P1;PMS_P2;Temp;Humidity;BMP_temperature;BMP_pressure;BME280_temperature;BME280_humidity;BME280_pressure;Samples;Min_cycle;Max_cycle;Signal;HPM_P1;HPM_P2
2022/10/31 00:00:50;;;;;;;194.07;60.67;;;11.80;99.90;;;;;;5129271;27;20306;-51
2022/10/31 00:03:18;;;;;;;608.47;171.57;;;11.80;99.90;;;;;;5128955;27;20219;-51
2022/10/31 00:05:48;;;;;;;793.13;266.70;;;11.80;99.90;;;;;;5130045;27;20245;-51
2022/10/31 00:08:17;;;;;;;403.47;109.73;;;11.80;99.90;;;;;;5129445;27;20206;-50
2022/10/31 00:10:46;;;;;;;236.33;68.73;;;11.80;99.90;;;;;;5134147;27;20289;-51
2022/10/31 00:13:15;;;;;;;626.23;204.83;;;11.80;99.90;;;;;;5133112;27;20234;-51
2022/10/31 00:15:45;;;;;;;165.60;63.87;;;11.70;99.90;;;;;;5134007;27;20203;-51
2022/10/31 00:18:13;;;;;;;334.40;129.37;;;11.60;99.90;;;;;;5132448;27;20259;-51
2022/10/31 00:20:41;;;;;;;602.13;241.60;;;11.60;99.90;;;;;;5134040;27;20269;-50
2022/10/31 00:23:11;;;;;;;213.80;61.77;;;11.60;99.90;;;;;;5126085;27;20237;-51
2022/10/31 00:25:40;;;;;;;593.27;271.10;;;11.50;99.90;;;;;;5133361;27;20285;-50
2022/10/31 00:28:11;;;;;;;552.83;248.97;;;11.50;99.90;;;;;;5126189;27;20211;-50
2022/10/31 00:30:39;;;;;;;348.07;160.10;;;11.40;99.90;;;;;;5131623;27;20286;-51
2022/10/31 00:33:09;;;;;;;231.53;66.90;;;11.40;99.90;;;;;;5133070;27;20243;-50
2022/10/31 00:35:37;;;;;;;46.80;21.20;;;11.40;99.90;;;;;;5131820;27;20792;-51
2022/10/31 00:38:05;;;;;;;412.23;121.73;;;11.40;99.90;;;;;;5133555;27;20374;-51
2022/10/31 00:40:33;;;;;;;439.07;156.33;;;11.40;99.90;;;;;;5132385;27;20210;-51
2022/10/31 00:43:01;;;;;;;412.60;177.50;;;11.40;99.90;;;;;;5132814;27;20238;-51
2022/10/31 00:45:30;;;;;;;193.77;83.27;;;11.50;99.90;;;;;;5133327;27;20240;-51
2022/10/31 00:47:58;;;;;;;165.03;51.70;;;11.40;99.90;;;;;;5132288;27;20210;-51
2022/10/31 00:50:28;;;;;;;507.00;189.73;;;11.40;99.90;;;;;;5132655;27;20641;-51
2022/10/31 00:52:56;;;;;;;664.20;202.27;;;11.30;99.90;;;;;;5132142;27;20299;-51
2022/10/31 00:55:24;;;;;;;218.17;76.60;;;11.30;99.90;;;;;;5132342;27;20238;-50
2022/10/31 00:57:52;;;;;;;342.67;119.80;;;11.30;99.90;;;;;;5132223;27;20290;-51
2022/10/31 01:00:21;;;;;;;538.70;145.40;;;11.20;99.90;;;;;;5132547;27;20226;-51
2022/10/31 01:02:49;;;;;;;1099.17;292.30;;;11.20;99.90;;;;;;5131738;27;20775;-51
2022/10/31 01:05:17;;;;;;;282.60;73.77;;;11.20;99.90;;;;;;5132973;27;20203;-51
2022/10/31 01:07:47;;;;;;;526.87;180.53;;;11.20;99.90;;;;;;5132751;27;20289;-50
2022/10/31 01:10:15;;;;;;;252.13;83.30;;;11.20;99.90;;;;;;5131395;27;20247;-51
2022/10/31 01:12:45;;;;;;;536.00;205.50;;;11.20;99.90;;;;;;5132568;27;20286;-50
2022/10/31 01:15:16;;;;;;;345.70;156.57;;;11.20;99.90;;;;;;5132656;27;20211;-51
2022/10/31 01:17:44;;;;;;;407.80;148.37;;;11.20;99.90;;;;;;5132049;27;20325;-51
2022/10/31 01:20:14;;;;;;;577.90;271.03;;;11.20;99.90;;;;;;5130616;27;20261;-51
2022/10/31 01:22:42;;;;;;;271.90;135.87;;;11.20;99.90;;;;;;5123994;27;20250;-51
2022/10/31 01:25:12;;;;;;;269.53;112.27;;;11.20;99.90;;;;;;5132339;27;20314;-51
2022/10/31 01:27:40;;;;;;;383.97;135.83;;;11.20;99.90;;;;;;5128851;27;20242;-51
2022/10/31 01:30:09;;;;;;;1258.80;358.00;;;11.10;99.90;;;;;;5130936;27;20285;-51
2022/10/31 01:32:37;;;;;;;549.47;139.63;;;11.10;99.90;;;;;;5131913;27;20209;-50
2022/10/31 01:35:06;;;;;;;881.30;244.67;;;11.10;99.90;;;;;;5130333;27;20202;-51
2022/10/31 01:37:34;;;;;;;595.07;213.50;;;11.10;99.90;;;;;;5132768;27;20635;-50
2022/10/31 01:40:02;;;;;;;492.60;181.07;;;11.10;99.90;;;;;;5130200;27;20305;-50
2022/10/31 01:42:31;;;;;;;252.33;85.47;;;11.10;99.90;;;;;;5131798;27;20301;-51
2022/10/31 01:45:02;;;;;;;200.67;71.37;;;11.20;99.90;;;;;;5131600;27;20259;-51
2022/10/31 01:47:36;;;;;;;532.83;193.53;;;11.20;99.90;;;;;;5131630;27;20298;-51
2022/10/31 01:50:12;;;;;;;1999.90;451.00;;;11.20;99.90;;;;;;5131862;27;20301;-51
2022/10/31 01:52:43;;;;;;;1448.87;347.00;;;11.20;99.90;;;;;;5131178;27;20190;-50
2022/10/31 01:55:16;;;;;;;1029.43;291.73;;;11.20;99.90;;;;;;5132390;27;20310;-51
2022/10/31 01:57:49;;;;;;;474.83;162.77;;;11.20;99.90;;;;;;5131981;27;20202;-51
2022/10/31 02:00:17;;;;;;;341.50;107.47;;;11.20;99.90;;;;;;5131317;27;20305;-51
2022/10/31 02:02:46;;;;;;;1663.47;360.70;;;11.30;99.90;;;;;;5130399;27;20221;-51
2022/10/31 02:05:18;;;;;;;457.87;143.37;;;11.30;99.90;;;;;;5131007;27;20257;-51
2022/10/31 02:07:52;;;;;;;276.70;79.47;;;11.20;99.90;;;;;;5131010;27;20213;-51
2022/10/31 02:10:23;;;;;;;208.53;73.63;;;11.30;99.90;;;;;;5130964;27;20309;-51
2022/10/31 02:12:56;;;;;;;438.07;172.60;;;11.20;99.90;;;;;;5131571;27;20256;-51
2022/10/31 02:15:24;;;;;;;354.80;138.87;;;11.20;99.90;;;;;;5131540;27;20211;-51
2022/10/31 02:17:53;;;;;;;1308.37;325.77;;;11.20;99.90;;;;;;5130984;27;20241;-51
2022/10/31 02:20:24;;;;;;;299.00;128.17;;;11.20;99.90;;;;;;5131362;27;20284;-51
2022/10/31 02:23:21;;;;;;;216.77;75.93;;;11.20;99.90;;;;;;5124268;27;20306;-51
2022/10/31 02:26:17;;;;;;;355.97;167.93;;;11.20;99.90;;;;;;5116882;27;20305;-51
2022/10/31 02:29:04;;;;;;;293.13;115.73;;;11.10;99.90;;;;;;5125443;27;20317;-51
2022/10/31 02:31:43;;;;;;;418.03;165.83;;;11.00;99.90;;;;;;5131239;27;20619;-51
2022/10/31 02:34:18;;;;;;;576.07;257.70;;;11.00;99.90;;;;;;5130211;27;20203;-51
2022/10/31 02:36:53;;;;;;;418.23;147.20;;;11.00;99.90;;;;;;5131777;27;20198;-51
2022/10/31 02:39:26;;;;;;;276.03;91.07;;;10.90;99.90;;;;;;5130211;27;20313;-51
2022/10/31 02:42:04;;;;;;;1381.83;299.80;;;10.90;99.90;;;;;;5130804;27;20309;-51
2022/10/31 02:44:38;;;;;;;1297.93;315.80;;;10.90;99.90;;;;;;5130951;27;20234;-51
2022/10/31 02:47:13;;;;;;;892.93;214.20;;;10.90;99.90;;;;;;5130668;27;20231;-50
2022/10/31 02:49:46;;;;;;;935.13;221.97;;;10.80;99.90;;;;;;5129370;27;20329;-51
2022/10/31 02:52:18;;;;;;;606.23;217.33;;;10.90;99.90;;;;;;5130619;27;20202;-50
2022/10/31 02:54:47;;;;;;;699.53;206.77;;;10.90;99.90;;;;;;5116954;27;20663;-51
2022/10/31 02:57:18;;;;;;;883.63;225.03;;;10.90;99.90;;;;;;5130566;27;20214;-51
2022/10/31 02:59:49;;;;;;;645.63;179.83;;;10.90;99.90;;;;;;5130283;27;20309;-51
2022/10/31 03:02:47;;;;;;;757.80;246.80;;;10.90;99.90;;;;;;5129913;27;20265;-51
2022/10/31 03:05:46;;;;;;;139.20;46.27;;;10.90;99.90;;;;;;5121846;27;20571;-51
2022/10/31 03:08:23;;;;;;;224.90;77.43;;;10.90;99.90;;;;;;5114236;27;20285;-51
2022/10/31 03:10:55;;;;;;;507.83;226.73;;;10.80;99.90;;;;;;5130897;27;20238;-51
2022/10/31 03:13:33;;;;;;;539.13;248.53;;;10.90;99.90;;;;;;5129622;27;20844;-50
2022/10/31 03:16:09;;;;;;;230.10;90.43;;;10.90;99.90;;;;;;5123773;27;20205;-51
2022/10/31 03:18:43;;;;;;;565.67;233.27;;;10.80;99.90;;;;;;5133043;27;20332;-51
2022/10/31 03:21:15;;;;;;;47.13;21.33;;;10.80;99.90;;;;;;5137925;27;20895;-51
2022/10/31 03:23:47;;;;;;;184.53;88.10;;;10.80;99.90;;;;;;5137270;27;20222;-51
2022/10/31 03:26:17;;;;;;;178.87;69.20;;;10.70;99.90;;;;;;5145954;27;20233;-50
2022/10/31 03:28:48;;;;;;;257.90;95.50;;;10.70;99.90;;;;;;5146339;27;20680;-51
2022/10/31 03:31:24;;;;;;;270.90;117.43;;;10.70;99.90;;;;;;5149722;27;20210;-51
2022/10/31 03:33:55;;;;;;;637.47;128.13;;;10.70;99.90;;;;;;5128778;27;20289;-51
2022/10/31 03:36:24;;;;;;;300.43;99.80;;;10.70;99.90;;;;;;5144738;27;20229;-51
2022/10/31 03:38:53;;;;;;;1211.37;299.97;;;10.60;99.90;;;;;;5150480;27;20282;-51
2022/10/31 03:41:24;;;;;;;365.20;117.00;;;10.60;99.90;;;;;;5136377;27;20238;-50
2022/10/31 03:43:58;;;;;;;619.33;176.10;;;10.60;99.90;;;;;;5149036;27;20665;-51
2022/10/31 03:46:26;;;;;;;391.17;115.37;;;10.60;99.90;;;;;;5150701;27;20635;-51
2022/10/31 03:48:56;;;;;;;311.80;92.53;;;10.60;99.90;;;;;;5141290;27;20225;-51
2022/10/31 03:51:30;;;;;;;152.40;63.03;;;10.60;99.90;;;;;;5142974;27;20209;-51
2022/10/31 03:54:05;;;;;;;466.67;159.17;;;10.60;99.90;;;;;;5149602;27;20750;-51
2022/10/31 03:56:38;;;;;;;621.77;155.60;;;10.60;99.90;;;;;;5150184;27;20236;-51
2022/10/31 03:59:10;;;;;;;1076.70;263.70;;;10.60;99.90;;;;;;5150116;27;20286;-51
2022/10/31 04:01:42;;;;;;;352.70;90.73;;;10.50;99.90;;;;;;5150149;27;20285;-51
2022/10/31 04:04:12;;;;;;;310.30;103.57;;;10.50;99.90;;;;;;5147572;27;20232;-50
2022/10/31 04:06:43;;;;;;;353.57;124.87;;;10.50;99.90;;;;;;5142379;27;20232;-50
2022/10/31 04:09:11;;;;;;;475.47;128.43;;;10.50;99.90;;;;;;5147208;27;20257;-51
2022/10/31 04:11:46;;;;;;;281.83;91.03;;;10.50;99.90;;;;;;5141401;27;20249;-51
2022/10/31 04:14:14;;;;;;;839.00;202.33;;;10.40;99.90;;;;;;5150254;27;20190;-51
2022/10/31 04:16:44;;;;;;;1894.50;365.13;;;10.40;99.90;;;;;;5149880;27;20577;-51
2022/10/31 04:19:15;;;;;;;425.57;157.70;;;10.40;99.90;;;;;;5135596;27;20586;-51
2022/10/31 04:21:44;;;;;;;384.50;120.33;;;10.40;99.90;;;;;;5141903;27;20298;-51
2022/10/31 04:24:12;;;;;;;946.63;240.73;;;10.40;99.90;;;;;;5131547;27;20247;-50
2022/10/31 04:26:40;;;;;;;309.67;86.73;;;10.40;99.90;;;;;;5150671;27;20202;-51
2022/10/31 04:29:08;;;;;;;1369.80;249.23;;;10.40;99.90;;;;;;5148035;27;20225;-50
2022/10/31 04:31:36;;;;;;;261.50;120.50;;;10.30;99.90;;;;;;5141408;27;20313;-51
2022/10/31 04:34:04;;;;;;;118.43;36.03;;;10.40;99.90;;;;;;5148122;27;20210;-50
2022/10/31 04:36:34;;;;;;;81.47;32.00;;;10.40;99.90;;;;;;5150228;27;20199;-51
2022/10/31 04:39:02;;;;;;;20.63;14.83;;;10.40;99.90;;;;;;5142123;27;20254;-51
2022/10/31 04:41:31;;;;;;;167.07;89.23;;;10.40;99.90;;;;;;5146610;27;20255;-51
2022/10/31 04:43:59;;;;;;;64.47;18.77;;;10.40;99.90;;;;;;5145229;27;20227;-51
2022/10/31 04:46:27;;;;;;;425.93;249.13;;;10.40;99.90;;;;;;5149289;27;20210;-51
2022/10/31 04:48:56;;;;;;;482.20;181.80;;;10.30;99.90;;;;;;5141457;27;20980;-51
2022/10/31 04:51:24;;;;;;;76.10;34.87;;;10.30;99.90;;;;;;5140620;27;20214;-50
2022/10/31 04:53:53;;;;;;;254.80;102.83;;;10.20;99.90;;;;;;5149235;27;20202;-51
2022/10/31 04:56:21;;;;;;;353.67;171.00;;;10.20;99.90;;;;;;5154024;27;20278;-51
2022/10/31 04:58:50;;;;;;;93.40;41.57;;;10.30;99.90;;;;;;5153150;27;20227;-51
2022/10/31 05:01:18;;;;;;;62.27;22.53;;;10.20;99.90;;;;;;5153871;27;20214;-51
2022/10/31 05:03:46;;;;;;;155.43;49.97;;;10.20;99.90;;;;;;5147594;27;20223;-50
2022/10/31 05:06:16;;;;;;;213.97;75.30;;;10.10;99.90;;;;;;5144763;27;20264;-50
2022/10/31 05:08:44;;;;;;;296.53;128.47;;;10.10;99.90;;;;;;5145523;27;20600;-51
2022/10/31 05:11:13;;;;;;;212.63;81.83;;;10.10;99.90;;;;;;5153337;27;20790;-51
2022/10/31 05:13:42;;;;;;;338.47;116.03;;;10.00;99.90;;;;;;5152957;27;20308;-51
2022/10/31 05:16:10;;;;;;;172.93;63.70;;;10.00;99.90;;;;;;5149595;27;20656;-51
2022/10/31 05:18:38;;;;;;;206.90;86.97;;;10.00;99.90;;;;;;5147352;27;20276;-51
2022/10/31 05:21:06;;;;;;;367.20;154.60;;;10.00;99.90;;;;;;5151582;27;20285;-51
2022/10/31 05:23:34;;;;;;;127.87;61.10;;;9.90;99.90;;;;;;5136058;27;20253;-51
2022/10/31 05:26:02;;;;;;;15.47;10.97;;;9.80;99.90;;;;;;5135136;27;20215;-51
2022/10/31 05:28:32;;;;;;;122.73;56.80;;;9.80;99.90;;;;;;5148744;27;20232;-51
2022/10/31 05:31:00;;;;;;;279.43;103.50;;;9.90;99.90;;;;;;5148343;27;20268;-51
2022/10/31 05:33:28;;;;;;;356.83;189.60;;;9.80;99.90;;;;;;5152740;27;20202;-51
2022/10/31 05:35:56;;;;;;;152.03;62.10;;;9.80;99.90;;;;;;5151982;27;20198;-49
2022/10/31 05:38:24;;;;;;;125.70;57.90;;;9.70;99.90;;;;;;5143871;27;20232;-50
2022/10/31 05:40:57;;;;;;;102.23;39.63;;;9.80;99.90;;;;;;5152029;27;20293;-50
2022/10/31 05:43:25;;;;;;;277.37;100.87;;;9.80;99.90;;;;;;5147981;27;20251;-51
2022/10/31 05:45:55;;;;;;;32.80;20.73;;;9.80;99.90;;;;;;5153061;27;20683;-50
2022/10/31 05:48:23;;;;;;;23.10;14.13;;;9.80;99.90;;;;;;5151393;27;20612;-50
2022/10/31 05:50:51;;;;;;;100.43;32.83;;;9.70;99.90;;;;;;5149284;27;20210;-50
2022/10/31 05:53:20;;;;;;;22.10;15.60;;;9.70;99.90;;;;;;5152442;27;20258;-51
2022/10/31 05:55:48;;;;;;;619.07;321.87;;;9.70;99.90;;;;;;5152862;27;20316;-51
2022/10/31 05:58:16;;;;;;;282.90;112.73;;;9.70;99.90;;;;;;5152279;27;20210;-51
2022/10/31 06:00:44;;;;;;;249.83;119.20;;;9.60;99.90;;;;;;5151987;27;20290;-51
2022/10/31 06:03:13;;;;;;;63.83;30.30;;;9.60;99.90;;;;;;5139175;27;20219;-51
2022/10/31 06:05:42;;;;;;;96.03;43.87;;;9.60;99.90;;;;;;5152203;27;20295;-51
2022/10/31 06:08:10;;;;;;;217.97;97.07;;;9.70;99.90;;;;;;5139444;27;20295;-51
2022/10/31 06:10:38;;;;;;;264.63;131.33;;;9.60;99.90;;;;;;5124609;27;20207;-51
2022/10/31 06:13:06;;;;;;;172.93;65.87;;;9.70;99.90;;;;;;5130622;27;20300;-50
2022/10/31 06:15:34;;;;;;;275.37;145.20;;;9.70;99.90;;;;;;5152159;27;20738;-50
2022/10/31 06:18:04;;;;;;;72.73;30.60;;;9.80;99.90;;;;;;5141938;27;20661;-51
2022/10/31 06:20:34;;;;;;;252.43;108.17;;;9.70;99.90;;;;;;5145280;27;20222;-50
2022/10/31 06:23:03;;;;;;;142.63;60.47;;;9.70;99.90;;;;;;5142577;27;20203;-51
2022/10/31 06:25:32;;;;;;;164.87;78.33;;;9.70;99.90;;;;;;5148492;27;20290;-50
2022/10/31 06:28:00;;;;;;;137.67;62.07;;;9.60;99.90;;;;;;5139736;27;20241;-50
2022/10/31 06:30:29;;;;;;;38.47;22.20;;;9.60;99.90;;;;;;5142874;27;20313;-51
2022/10/31 06:33:03;;;;;;;264.47;119.30;;;9.60;99.90;;;;;;5144867;27;20198;-51
2022/10/31 06:35:31;;;;;;;355.23;160.50;;;9.60;99.90;;;;;;5149630;27;20271;-51
2022/10/31 06:38:01;;;;;;;325.37;138.33;;;9.60;99.90;;;;;;5147480;27;20272;-49
2022/10/31 06:40:30;;;;;;;154.60;62.93;;;9.60;99.90;;;;;;5150115;27;20267;-50
2022/10/31 06:42:59;;;;;;;301.50;190.50;;;9.60;99.90;;;;;;5137545;27;20207;-51
2022/10/31 06:45:28;;;;;;;72.17;32.07;;;9.70;99.90;;;;;;5148413;27;20237;-51
2022/10/31 06:47:57;;;;;;;417.10;159.93;;;9.70;99.90;;;;;;5142310;27;20621;-51
2022/10/31 06:50:45;;;;;;;212.03;99.57;;;9.70;99.90;;;;;;5144554;27;20198;-51
2022/10/31 06:53:15;;;;;;;234.67;93.27;;;9.70;99.90;;;;;;5143426;27;20225;-50
2022/10/31 06:55:43;;;;;;;357.47;167.70;;;9.80;99.90;;;;;;5145289;27;20252;-51
2022/10/31 06:58:12;;;;;;;458.90;185.73;;;9.90;99.90;;;;;;5145743;27;20206;-51
2022/10/31 07:00:40;;;;;;;606.63;284.27;;;9.90;99.90;;;;;;5140066;27;20712;-51
2022/10/31 07:03:11;;;;;;;294.20;140.83;;;10.10;99.90;;;;;;5147300;27;20927;-51
2022/10/31 07:05:40;;;;;;;401.77;173.97;;;10.20;99.90;;;;;;5146169;27;20220;-51
2022/10/31 07:08:11;;;;;;;515.40;242.37;;;10.20;99.90;;;;;;5149854;27;20230;-57
2022/10/31 07:10:42;;;;;;;316.37;133.47;;;10.20;99.90;;;;;;5143740;27;20213;-50
2022/10/31 07:13:13;;;;;;;709.60;320.47;;;10.30;99.90;;;;;;5149467;27;20254;-50
2022/10/31 07:15:42;;;;;;;293.37;129.27;;;10.30;99.90;;;;;;5127642;27;20194;-50
2022/10/31 07:18:12;;;;;;;995.57;554.53;;;10.30;99.90;;;;;;5121130;27;20251;-51
2022/10/31 07:20:40;;;;;;;612.97;292.77;;;10.50;99.90;;;;;;5129331;27;20207;-51
2022/10/31 07:23:10;;;;;;;198.07;65.23;;;10.50;99.90;;;;;;5127670;27;20294;-51
2022/10/31 07:25:40;;;;;;;185.77;63.70;;;10.50;99.90;;;;;;5126312;27;20226;-51
2022/10/31 07:28:09;;;;;;;575.57;276.80;;;10.60;99.90;;;;;;5124254;27;20274;-50
2022/10/31 07:30:37;;;;;;;918.37;415.70;;;10.60;99.90;;;;;;5130176;27;20286;-51
2022/10/31 07:33:06;;;;;;;441.13;142.93;;;10.70;99.90;;;;;;5135118;27;20324;-51
2022/10/31 07:35:35;;;;;;;687.80;275.37;;;10.70;99.90;;;;;;5127658;27;20295;-50
2022/10/31 07:38:10;;;;;;;519.20;217.20;;;10.80;99.90;;;;;;5138567;27;20194;-51
2022/10/31 07:40:40;;;;;;;555.43;223.00;;;10.90;99.90;;;;;;5128766;27;20202;-51
2022/10/31 07:43:09;;;;;;;783.07;316.40;;;10.90;99.90;;;;;;5129350;27;20225;-51
2022/10/31 07:45:41;;;;;;;351.57;131.57;;;11.00;99.90;;;;;;5127349;27;20211;-51
2022/10/31 07:48:10;;;;;;;715.73;247.90;;;11.10;99.90;;;;;;5131219;27;20249;-51
2022/10/31 07:50:39;;;;;;;537.27;192.23;;;11.10;99.90;;;;;;5129750;27;20199;-51
2022/10/31 07:53:09;;;;;;;670.07;278.37;;;11.30;99.90;;;;;;5129140;27;20237;-51
2022/10/31 07:55:38;;;;;;;557.67;204.77;;;11.30;99.90;;;;;;5133088;27;20233;-51
2022/10/31 07:58:09;;;;;;;817.13;366.07;;;11.40;99.90;;;;;;5128474;27;21063;-51
2022/10/31 08:00:38;;;;;;;664.13;275.50;;;11.50;99.90;;;;;;5133056;27;20198;-50
2022/10/31 08:03:08;;;;;;;774.37;303.97;;;11.50;99.90;;;;;;5127545;27;20790;-51
2022/10/31 08:05:37;;;;;;;787.37;340.47;;;11.50;99.90;;;;;;5130554;27;20341;-51
2022/10/31 08:08:06;;;;;;;957.17;384.97;;;11.60;99.90;;;;;;5135229;27;20264;-51
2022/10/31 08:10:35;;;;;;;886.37;502.60;;;11.60;99.90;;;;;;5121990;27;20307;-52
2022/10/31 08:13:08;;;;;;;616.70;259.43;;;11.60;99.90;;;;;;5124699;27;20278;-51
2022/10/31 08:15:39;;;;;;;519.57;273.17;;;11.70;99.90;;;;;;5121628;27;20238;-51
2022/10/31 08:18:08;;;;;;;689.70;267.63;;;11.60;99.90;;;;;;5118497;27;20205;-51
2022/10/31 08:20:36;;;;;;;506.90;197.60;;;11.70;99.90;;;;;;5126529;27;20246;-52
2022/10/31 08:23:05;;;;;;;590.43;194.77;;;11.80;99.90;;;;;;5122883;27;20228;-52
2022/10/31 08:25:35;;;;;;;581.67;193.40;;;11.90;99.90;;;;;;5124078;27;20223;-51
2022/10/31 08:28:09;;;;;;;372.67;152.80;;;11.90;99.90;;;;;;5129077;27;20214;-52
2022/10/31 08:30:38;;;;;;;312.43;141.50;;;12.00;99.90;;;;;;5131784;27;20726;-51
2022/10/31 08:33:10;;;;;;;550.03;170.13;;;12.00;99.90;;;;;;5136456;27;20226;-51
2022/10/31 08:35:38;;;;;;;287.67;83.83;;;12.10;99.90;;;;;;5123311;27;20237;-50
2022/10/31 08:38:07;;;;;;;1092.17;523.10;;;12.20;99.90;;;;;;5126767;27;20289;-51
2022/10/31 08:40:36;;;;;;;234.87;78.60;;;12.30;99.90;;;;;;5124151;27;20272;-52
2022/10/31 08:43:09;;;;;;;686.90;272.07;;;12.40;99.90;;;;;;5135423;27;20206;-51
2022/10/31 08:45:38;;;;;;;821.20;272.87;;;12.50;99.90;;;;;;5132889;27;20313;-51
2022/10/31 08:48:11;;;;;;;393.33;118.13;;;12.60;99.90;;;;;;5133830;27;20202;-50
2022/10/31 08:50:39;;;;;;;1004.27;316.63;;;12.60;99.90;;;;;;5129832;27;20285;-50
2022/10/31 08:53:12;;;;;;;646.53;189.57;;;12.70;99.90;;;;;;5127417;27;20202;-52
2022/10/31 08:55:42;;;;;;;1245.33;444.53;;;12.80;99.90;;;;;;5129290;27;20226;-52
2022/10/31 08:58:15;;;;;;;438.90;135.80;;;12.90;99.90;;;;;;5133675;27;20205;-51
2022/10/31 09:00:44;;;;;;;803.77;245.03;;;12.90;99.90;;;;;;5132913;27;20280;-52
2022/10/31 09:03:14;;;;;;;1103.43;427.43;;;13.00;99.90;;;;;;5124660;27;20289;-51
2022/10/31 09:05:42;;;;;;;1126.77;412.00;;;13.10;99.90;;;;;;5126659;27;20227;-51
2022/10/31 09:08:10;;;;;;;766.10;273.33;;;13.10;99.90;;;;;;5125805;27;20568;-51
2022/10/31 09:10:44;;;;;;;1042.17;324.87;;;13.20;99.90;;;;;;5131269;27;20211;-51
2022/10/31 09:13:15;;;;;;;807.27;297.63;;;13.30;99.90;;;;;;5125130;27;20684;-52
2022/10/31 09:15:46;;;;;;;821.00;236.77;;;13.30;99.90;;;;;;5130928;27;20290;-52
2022/10/31 09:18:17;;;;;;;937.20;279.50;;;13.40;99.90;;;;;;5123650;27;20396;-51
2022/10/31 09:20:46;;;;;;;1141.30;344.87;;;13.50;99.90;;;;;;5128493;27;20253;-51
2022/10/31 09:23:16;;;;;;;1225.10;453.70;;;13.60;99.90;;;;;;5121156;27;20199;-51
2022/10/31 09:25:45;;;;;;;724.90;217.87;;;13.60;99.90;;;;;;5122468;27;20254;-51
2022/10/31 09:28:20;;;;;;;1073.93;379.50;;;13.70;99.90;;;;;;5120090;27;20674;-51
2022/10/31 09:30:49;;;;;;;1572.03;663.97;;;13.80;99.90;;;;;;5129338;27;20625;-51
2022/10/31 09:33:18;;;;;;;1278.50;473.53;;;13.80;99.90;;;;;;5118911;27;20226;-51
2022/10/31 09:35:46;;;;;;;1126.93;332.73;;;13.90;99.90;;;;;;5118340;27;20231;-52
2022/10/31 09:38:15;;;;;;;1276.87;419.33;;;14.00;99.90;;;;;;5113758;27;20290;-51
2022/10/31 09:40:45;;;;;;;990.90;309.10;;;14.10;99.90;;;;;;5123256;27;20200;-51
2022/10/31 09:43:20;;;;;;;816.73;210.43;;;14.10;99.90;;;;;;5124778;27;20793;-51
2022/10/31 09:45:57;;;;;;;1361.10;524.20;;;14.20;99.90;;;;;;5131402;27;20253;-51
2022/10/31 09:48:54;;;;;;;984.83;317.63;;;14.20;99.90;;;;;;5128750;27;20674;-51
2022/10/31 09:51:26;;;;;;;1187.77;434.77;;;14.30;99.90;;;;;;5127159;27;20982;-52
2022/10/31 09:54:00;;;;;;;974.43;290.60;;;14.40;99.90;;;;;;5131661;27;20306;-51
2022/10/31 09:56:29;;;;;;;1654.90;507.30;;;14.50;99.90;;;;;;5131802;27;20249;-52
2022/10/31 09:59:01;;;;;;;1675.23;532.47;;;14.50;99.90;;;;;;5136999;27;20262;-51
2022/10/31 10:01:40;;;;;;;1454.23;472.07;;;14.60;99.90;;;;;;5137250;27;20242;-51
2022/10/31 10:04:24;;;;;;;922.90;278.27;;;14.70;99.90;;;;;;5139366;27;20881;-50
2022/10/31 10:06:53;;;;;;;1180.33;393.33;;;14.70;99.90;;;;;;5126348;27;20319;-50
2022/10/31 10:09:26;;;;;;;1244.90;395.57;;;14.80;99.90;;;;;;5124625;27;20246;-50
2022/10/31 10:12:05;;;;;;;1146.77;297.00;;;14.80;99.90;;;;;;5130424;27;20301;-50
2022/10/31 10:14:58;;;;;;;1121.80;371.10;;;14.90;99.90;;;;;;5130242;27;20202;-50
2022/10/31 10:17:40;;;;;;;1061.73;342.50;;;14.90;99.90;;;;;;5118525;27;20259;-50
2022/10/31 10:20:29;;;;;;;1646.80;486.70;;;15.00;99.90;;;;;;5129377;27;20310;-51
2022/10/31 10:23:33;;;;;;;1032.33;305.87;;;15.10;99.90;;;;;;5128408;27;20241;-51
2022/10/31 10:26:11;;;;;;;1372.27;454.17;;;15.20;99.90;;;;;;5130353;27;20215;-52
2022/10/31 10:28:42;;;;;;;1632.17;481.13;;;15.20;99.90;;;;;;5122051;27;20222;-51
2022/10/31 10:31:15;;;;;;;1418.20;496.73;;;15.30;99.90;;;;;;5127864;27;20289;-52
2022/10/31 10:33:48;;;;;;;1732.97;577.10;;;15.40;99.90;;;;;;5124105;27;20280;-50
2022/10/31 10:36:21;;;;;;;1240.70;421.07;;;15.50;99.90;;;;;;5121955;27;20199;-51
2022/10/31 10:38:55;;;;;;;1236.43;349.87;;;15.50;99.90;;;;;;5122706;27;20249;-51
2022/10/31 10:41:24;;;;;;;1470.85;420.75;;;15.60;99.90;;;;;;5116585;27;20268;-51
2022/10/31 10:43:57;;;;;;;1875.43;549.17;;;15.70;99.90;;;;;;5114417;27;20211;-52
2022/10/31 10:49:33;;;;;;;1343.22;459.80;;;15.80;99.90;;;;;;5121553;27;20310;-51
2022/10/31 10:52:08;;;;;;;1480.07;504.17;;;15.80;99.90;;;;;;5125362;27;20206;-51
2022/10/31 10:55:04;;;;;;;1614.63;551.95;;;15.80;99.90;;;;;;5119812;27;20199;-50
2022/10/31 10:57:49;;;;;;;1245.30;361.75;;;15.90;99.90;;;;;;5121234;27;20202;-51
2022/10/31 11:00:21;;;;;;;1413.32;555.35;;;15.90;99.90;;;;;;5121310;27;20330;-51
2022/10/31 11:02:51;;;;;;;1287.15;402.83;;;16.00;99.90;;;;;;5125446;27;20302;-51
2022/10/31 11:05:31;;;;;;;1248.28;427.48;;;16.00;99.90;;;;;;5124817;27;20215;-51
2022/10/31 11:07:59;;;;;;;1540.88;516.88;;;16.00;99.90;;;;;;5117080;27;20279;-51
2022/10/31 11:10:27;;;;;;;1582.22;570.53;;;16.10;99.90;;;;;;5115820;27;20262;-51
2022/10/31 11:13:03;;;;;;;1329.20;490.63;;;16.10;99.90;;;;;;5111249;27;20235;-50
2022/10/31 11:15:36;;;;;;;1246.95;481.33;;;16.10;99.90;;;;;;5119819;27;20672;-51
2022/10/31 11:18:06;;;;;;;1249.50;537.55;;;16.10;99.90;;;;;;5127197;27;20314;-50
2022/10/31 11:20:36;;;;;;;1962.68;603.30;;;16.20;99.90;;;;;;5125638;27;20311;-51
2022/10/31 11:23:18;;;;;;;1753.68;707.22;;;16.30;99.90;;;;;;5127947;27;20231;-51
2022/10/31 11:25:52;;;;;;;1380.78;520.63;;;16.30;99.90;;;;;;5127719;27;20198;-51
2022/10/31 11:28:20;;;;;;;1272.25;399.60;;;16.30;99.90;;;;;;5129787;27;20226;-51
2022/10/31 11:30:51;;;;;;;1745.40;670.72;;;16.40;99.90;;;;;;5137281;27;20302;-51
2022/10/31 11:33:31;;;;;;;1596.90;585.33;;;16.40;99.90;;;;;;5131210;27;20360;-51
2022/10/31 11:36:01;;;;;;;1932.18;634.13;;;16.50;99.90;;;;;;5135914;27;20307;-51
2022/10/31 11:38:35;;;;;;;1254.88;469.65;;;16.50;99.90;;;;;;5138310;27;20802;-51
2022/10/31 11:41:12;;;;;;;1701.25;527.50;;;16.60;99.90;;;;;;5139315;27;20675;-51
2022/10/31 11:43:48;;;;;;;1659.63;627.35;;;16.70;99.90;;;;;;5131970;27;20293;-51
2022/10/31 11:46:22;;;;;;;1462.38;458.63;;;16.80;99.90;;;;;;5134067;27;20285;-51
2022/10/31 11:48:54;;;;;;;1465.20;514.03;;;16.90;99.90;;;;;;5128980;27;20305;-51
2022/10/31 11:51:24;;;;;;;1804.40;582.08;;;16.90;99.90;;;;;;5127107;27;20798;-51
2022/10/31 11:53:53;;;;;;;1564.60;552.92;;;17.00;99.90;;;;;;5129529;27;20298;-52
2022/10/31 11:56:38;;;;;;;1999.90;787.40;;;17.00;99.90;;;;;;5132520;27;20606;-51
2022/10/31 11:59:15;;;;;;;1533.60;651.63;;;17.00;99.90;;;;;;5124737;27;20334;-51
2022/10/31 12:01:49;;;;;;;1999.90;671.40;;;17.00;99.90;;;;;;5133030;27;20317;-51
2022/10/31 12:04:19;;;;;;;1807.60;693.40;;;17.10;99.90;;;;;;5127085;27;20754;-52
2022/10/31 12:06:49;;;;;;;1853.43;701.53;;;17.10;99.90;;;;;;5122518;27;20221;-52
2022/10/31 12:09:22;;;;;;;1849.00;675.65;;;17.20;99.90;;;;;;5119048;27;20254;-51
2022/10/31 12:12:13;;;;;;;1672.25;696.45;;;17.20;99.90;;;;;;5129638;27;20211;-51
2022/10/31 12:14:53;;;;;;;1934.70;675.50;;;17.20;99.90;;;;;;5131538;27;20285;-51
2022/10/31 12:17:24;;;;;;;1995.85;766.08;;;17.20;99.90;;;;;;5125707;27;20222;-52
2022/10/31 12:20:04;;;;;;;1744.28;665.75;;;17.30;99.90;;;;;;5122883;27;20777;-52
2022/10/31 12:22:42;;;;;;;1646.07;611.03;;;17.30;99.90;;;;;;5126965;27;20294;-52
2022/10/31 12:25:36;;;;;;;1999.90;786.97;;;17.30;99.90;;;;;;5131716;27;20230;-51
2022/10/31 12:28:37;;;;;;;1999.90;637.97;;;17.40;99.90;;;;;;5119768;27;20338;-52
2022/10/31 12:31:25;;;;;;;1532.10;520.72;;;17.40;99.90;;;;;;5125639;27;20648;-52
2022/10/31 12:34:02;;;;;;;1749.95;666.22;;;17.50;99.90;;;;;;5125546;27;20729;-52